Time;durP1;ratioP1;P1;durP2;ratioP2;P2;SDS_P1;SDS_P2;PMS_P1;PMS_P2;Temp;Humidity;BMP_temperature;BMP_pressure;BME280_temperature;BME280_humidity;BME280_pressure;Samples;Min_cycle;Max_cycle;Signal;HPM_P1;HPM_P2
2023/12/08 00:00:27;;;;;;;3.90;3.50;;;14.80;51.20;15.90;100069.00;;;;5050766;28;20217;-43
2023/12/08 00:02:53;;;;;;;3.17;2.97;;;14.80;51.30;15.90;100085.00;;;;5045213;28;20179;-42
2023/12/08 00:05:18;;;;;;;3.50;3.20;;;14.80;51.70;15.90;100089.00;;;;5050199;28;20194;-42
2023/12/08 00:07:44;;;;;;;3.40;3.10;;;14.80;51.50;15.90;100096.00;;;;5050509;28;20182;-43
2023/12/08 00:10:10;;;;;;;3.93;3.17;;;14.80;51.70;15.80;100085.00;;;;5050382;28;20189;-43
2023/12/08 00:12:37;;;;;;;3.37;3.07;;;14.80;51.70;15.80;100094.00;;;;5049990;28;20284;-42
2023/12/08 00:15:03;;;;;;;3.50;3.20;;;14.70;51.70;15.80;100085.00;;;;5050332;28;20206;-42
2023/12/08 00:17:29;;;;;;;3.33;3.03;;;14.80;51.80;15.80;100065.00;;;;5050133;28;20213;-42
2023/12/08 00:19:54;;;;;;;3.53;3.23;;;14.80;52.00;15.80;100052.00;;;;5050315;28;20178;-42
2023/12/08 00:22:20;;;;;;;3.00;2.80;;;14.70;52.10;15.80;100053.00;;;;5049994;28;20190;-42
2023/12/08 00:24:46;;;;;;;3.47;3.17;;;14.80;52.10;15.70;100055.00;;;;5046810;28;20202;-42
2023/12/08 00:27:12;;;;;;;3.50;3.20;;;14.70;51.70;15.70;100037.00;;;;5049979;28;20189;-42
2023/12/08 00:29:38;;;;;;;3.30;3.10;;;14.70;52.10;15.70;100044.00;;;;5050081;28;20182;-42
2023/12/08 00:32:04;;;;;;;3.20;2.90;;;14.70;52.00;15.70;100034.00;;;;5050095;28;20186;-43
2023/12/08 00:34:30;;;;;;;3.30;3.10;;;14.60;52.20;15.70;100002.00;;;;5049706;28;20182;-43
2023/12/08 00:36:56;;;;;;;3.07;2.87;;;14.70;52.40;15.70;99997.00;;;;5049762;28;20205;-42
2023/12/08 00:39:22;;;;;;;3.17;2.87;;;14.70;52.40;15.70;100002.00;;;;5049643;28;20545;-42
2023/12/08 00:41:47;;;;;;;3.27;2.97;;;14.70;52.40;15.70;99995.00;;;;5049642;28;20174;-42
2023/12/08 00:44:13;;;;;;;3.60;3.30;;;14.70;52.40;15.70;100002.00;;;;5048255;28;20657;-42
2023/12/08 00:46:39;;;;;;;3.10;2.90;;;14.70;52.40;15.70;100005.00;;;;5043325;28;20285;-42
2023/12/08 00:49:04;;;;;;;3.43;3.13;;;14.70;52.40;15.70;100014.00;;;;5049597;28;20182;-42
2023/12/08 00:51:30;;;;;;;3.67;3.37;;;14.70;52.40;15.70;100011.00;;;;5049610;28;20206;-42
2023/12/08 00:53:56;;;;;;;3.50;3.20;;;14.60;52.30;15.60;100001.00;;;;5049581;28;20182;-42
2023/12/08 00:56:22;;;;;;;3.40;3.10;;;14.60;52.40;15.60;99994.00;;;;5048196;28;20209;-42
2023/12/08 00:58:48;;;;;;;3.30;3.00;;;14.50;52.40;15.60;99992.00;;;;5049470;28;20193;-42
2023/12/08 01:01:16;;;;;;;3.77;3.47;;;14.50;52.40;15.60;100020.00;;;;5048971;28;20676;-42
2023/12/08 01:03:42;;;;;;;3.60;3.30;;;14.50;52.00;15.50;100015.00;;;;5048398;28;20182;-42
2023/12/08 01:06:07;;;;;;;3.60;3.30;;;14.50;52.00;15.50;100012.00;;;;5048387;28;20201;-42
2023/12/08 01:08:33;;;;;;;3.57;3.27;;;14.40;52.30;15.50;99998.00;;;;5048465;28;20228;-43
2023/12/08 01:10:59;;;;;;;3.70;3.40;;;14.40;52.30;15.50;99972.00;;;;5048188;28;20201;-43
2023/12/08 01:13:25;;;;;;;3.90;3.60;;;14.40;52.30;15.50;99969.00;;;;5047876;28;20379;-43
2023/12/08 01:15:50;;;;;;;3.27;3.07;;;14.50;52.40;15.50;99960.00;;;;5048093;28;20194;-43
2023/12/08 01:18:16;;;;;;;3.60;3.30;;;14.50;52.50;15.50;99974.00;;;;5048057;28;20209;-43
2023/12/08 01:20:42;;;;;;;3.70;3.40;;;14.50;52.40;15.50;99964.00;;;;5048137;28;20628;-42
2023/12/08 01:23:08;;;;;;;3.60;3.30;;;14.40;52.50;15.50;99982.00;;;;5049910;28;20170;-42
2023/12/08 01:25:33;;;;;;;3.83;3.53;;;14.40;52.30;15.40;99964.00;;;;5049901;28;20253;-42
2023/12/08 01:27:59;;;;;;;3.80;3.50;;;14.40;52.10;15.40;99942.00;;;;5048417;28;20189;-42
2023/12/08 01:30:25;;;;;;;3.80;3.50;;;14.30;52.30;15.40;99964.00;;;;5045228;28;20178;-42
2023/12/08 01:32:51;;;;;;;3.60;3.30;;;14.30;52.50;15.40;99966.00;;;;5048615;28;20178;-42
2023/12/08 01:35:16;;;;;;;3.87;3.57;;;14.40;52.50;15.40;99990.00;;;;5048323;28;20656;-42
2023/12/08 01:37:42;;;;;;;3.67;3.37;;;14.30;52.10;15.40;99982.00;;;;5048489;28;20275;-42
2023/12/08 01:40:08;;;;;;;3.97;3.67;;;14.30;52.10;15.30;99973.00;;;;5048071;28;20174;-42
2023/12/08 01:42:34;;;;;;;3.77;3.47;;;14.30;52.10;15.30;99960.00;;;;5047841;28;20261;-42
2023/12/08 01:45:00;;;;;;;3.67;3.37;;;14.30;52.30;15.30;99968.00;;;;5048117;28;20289;-44
2023/12/08 01:47:26;;;;;;;3.80;3.43;;;14.30;52.10;15.30;99971.00;;;;5048150;28;20216;-42
2023/12/08 01:49:51;;;;;;;3.80;3.50;;;14.30;52.10;15.30;99962.00;;;;5046630;28;20308;-42
2023/12/08 01:52:21;;;;;;;4.17;3.77;;;14.30;52.10;15.30;99956.00;;;;5046245;28;20182;-43
2023/12/08 01:54:49;;;;;;;3.90;3.60;;;14.30;52.00;15.30;99948.00;;;;5047701;28;20280;-43
2023/12/08 01:57:15;;;;;;;3.70;3.40;;;14.30;52.10;15.30;99945.00;;;;5029781;28;20237;-42
2023/12/08 01:59:40;;;;;;;4.07;3.77;;;14.30;52.30;15.30;99949.00;;;;5048092;28;20277;-43
2023/12/08 02:02:06;;;;;;;3.90;3.60;;;14.30;52.10;15.10;99940.00;;;;5047645;28;20575;-42
2023/12/08 02:04:32;;;;;;;4.00;3.70;;;14.20;52.00;15.30;99932.00;;;;5047183;28;20182;-42
2023/12/08 02:06:57;;;;;;;4.07;3.73;;;14.20;52.10;15.30;99931.00;;;;5046434;28;20194;-43
2023/12/08 02:09:23;;;;;;;3.80;3.50;;;14.20;52.10;15.20;99948.00;;;;5046301;28;20189;-42
2023/12/08 02:11:49;;;;;;;3.90;3.60;;;14.20;52.00;15.20;99947.00;;;;5050760;28;20178;-42
2023/12/08 02:14:15;;;;;;;4.07;3.77;;;14.10;51.90;15.20;99955.00;;;;5051443;28;20257;-42
2023/12/08 02:16:55;;;;;;;3.93;3.63;;;14.10;51.90;15.20;99948.00;;;;5051440;28;20221;-43
2023/12/08 02:19:21;;;;;;;3.90;3.60;;;14.00;51.90;15.10;99932.00;;;;5051363;28;20174;-42
2023/12/08 02:21:47;;;;;;;3.90;3.60;;;14.00;51.80;15.10;99949.00;;;;5050067;28;20173;-42
2023/12/08 02:24:12;;;;;;;4.33;3.93;;;14.00;51.80;15.10;99982.00;;;;5049899;28;20202;-42
2023/12/08 02:26:38;;;;;;;4.07;3.70;;;14.00;51.70;14.60;99960.00;;;;5051300;28;20198;-41
2023/12/08 02:29:08;;;;;;;4.03;3.73;;;14.00;51.60;15.00;99940.00;;;;5051500;28;20289;-42
2023/12/08 02:31:51;;;;;;;3.87;3.57;;;13.90;51.70;15.00;99917.00;;;;5050076;28;20170;-42
2023/12/08 02:34:17;;;;;;;4.17;3.87;;;13.90;51.70;15.00;99940.00;;;;5017914;28;20170;-42
2023/12/08 02:36:44;;;;;;;3.97;3.67;;;14.00;51.90;15.10;99938.00;;;;5033308;28;20279;-42
2023/12/08 02:39:10;;;;;;;3.93;3.63;;;14.10;52.00;15.00;99933.00;;;;5049816;28;20174;-43
2023/12/08 02:41:36;;;;;;;4.20;3.80;;;14.00;51.90;15.00;99929.00;;;;5050012;28;20528;-43
2023/12/08 02:44:02;;;;;;;4.50;4.10;;;14.00;51.90;15.10;99928.00;;;;5049643;28;20190;-45
2023/12/08 02:46:27;;;;;;;3.70;3.40;;;14.00;51.80;15.00;99919.00;;;;5051148;28;20536;-42
2023/12/08 02:48:53;;;;;;;4.20;3.80;;;14.00;51.90;15.00;99904.00;;;;5051114;28;20174;-41
2023/12/08 02:51:19;;;;;;;3.80;3.50;;;14.00;52.00;15.00;99911.00;;;;5051234;28;20220;-42
2023/12/08 02:53:44;;;;;;;4.00;3.60;;;14.00;52.00;15.00;99919.00;;;;5050870;28;20182;-41
2023/12/08 02:56:10;;;;;;;3.80;3.50;;;14.00;51.90;15.00;99924.00;;;;5049383;28;20198;-42
2023/12/08 02:58:36;;;;;;;4.13;3.83;;;14.00;52.00;15.00;99919.00;;;;5050864;28;20163;-43
2023/12/08 03:01:02;;;;;;;4.10;3.80;;;14.00;52.10;15.00;99901.00;;;;5050831;28;20532;-43
2023/12/08 03:03:27;;;;;;;3.90;3.60;;;14.00;52.20;15.00;99813.00;;;;5050194;28;20177;-43
2023/12/08 03:05:53;;;;;;;3.90;3.60;;;14.00;52.30;15.00;99878.00;;;;5050814;28;20201;-42
2023/12/08 03:08:19;;;;;;;3.90;3.60;;;14.00;52.30;15.00;99865.00;;;;5050591;28;20236;-42
2023/12/08 03:10:44;;;;;;;3.93;3.63;;;14.00;52.40;14.90;99867.00;;;;5049492;28;20758;-42
2023/12/08 03:13:10;;;;;;;3.70;3.40;;;13.90;52.40;14.90;99861.00;;;;5050387;28;20235;-42
2023/12/08 03:15:36;;;;;;;3.90;3.50;;;13.90;52.40;14.90;99850.00;;;;5049375;28;20194;-42
2023/12/08 03:18:02;;;;;;;3.83;3.53;;;13.90;52.40;14.90;99845.00;;;;5050337;28;20256;-42
2023/12/08 03:20:27;;;;;;;3.83;3.53;;;13.90;52.50;14.90;99833.00;;;;5050576;28;20664;-42
2023/12/08 03:22:53;;;;;;;3.60;3.30;;;13.90;52.60;14.90;99826.00;;;;5049977;28;20163;-42
2023/12/08 03:25:19;;;;;;;3.67;3.37;;;13.90;52.70;14.90;99840.00;;;;5050048;28;20191;-42
2023/12/08 03:27:44;;;;;;;4.10;3.70;;;13.90;52.70;14.90;99840.00;;;;5050208;28;20614;-42
2023/12/08 03:30:12;;;;;;;3.93;3.63;;;13.90;52.70;14.80;99855.00;;;;5050145;28;20254;-42
2023/12/08 03:32:38;;;;;;;3.93;3.63;;;13.80;52.70;14.80;99845.00;;;;5049433;28;20594;-42
2023/12/08 03:35:04;;;;;;;4.23;3.83;;;13.80;52.50;14.80;99840.00;;;;5049991;28;20201;-42
2023/12/08 03:37:30;;;;;;;3.70;3.40;;;13.80;52.50;14.80;99847.00;;;;5049904;28;20210;-42
2023/12/08 03:39:55;;;;;;;3.67;3.37;;;13.80;52.60;14.80;99831.00;;;;5050038;28;20185;-42
2023/12/08 03:42:21;;;;;;;4.00;3.70;;;13.80;52.80;14.80;99838.00;;;;5049813;28;20162;-42
2023/12/08 03:44:47;;;;;;;3.80;3.50;;;13.80;52.90;14.80;99809.00;;;;5049854;28;20221;-42
2023/12/08 03:47:13;;;;;;;3.80;3.50;;;13.80;52.80;14.80;99836.00;;;;5031992;28;20337;-42
2023/12/08 03:49:38;;;;;;;4.07;3.77;;;13.70;52.80;14.80;99842.00;;;;5050033;28;20174;-42
2023/12/08 03:52:04;;;;;;;3.90;3.60;;;13.70;52.80;14.80;99830.00;;;;5049808;28;20174;-42
2023/12/08 03:54:30;;;;;;;3.83;3.53;;;13.70;53.00;14.70;99836.00;;;;5049657;28;20178;-42
2023/12/08 03:56:56;;;;;;;3.87;3.57;;;13.70;53.00;14.70;99838.00;;;;5050525;28;20763;-42
2023/12/08 03:59:22;;;;;;;3.90;3.60;;;13.60;53.00;14.70;99830.00;;;;5049817;28;20167;-42
2023/12/08 04:01:52;;;;;;;3.93;3.63;;;13.70;53.00;14.70;99831.00;;;;5050446;28;20660;-43
2023/12/08 04:04:18;;;;;;;3.80;3.50;;;13.70;53.00;14.70;99827.00;;;;5050207;28;20660;-42
2023/12/08 04:06:43;;;;;;;3.50;3.20;;;13.70;53.00;14.70;99828.00;;;;5050686;28;20190;-41
2023/12/08 04:09:09;;;;;;;3.90;3.60;;;13.70;53.10;14.70;99840.00;;;;5050617;28;20170;-42
2023/12/08 04:11:35;;;;;;;3.87;3.50;;;13.70;53.20;14.70;99832.00;;;;5050513;28;20182;-43
2023/12/08 04:14:00;;;;;;;4.57;4.17;;;13.70;53.20;14.70;99837.00;;;;5050115;28;20193;-42
2023/12/08 04:16:26;;;;;;;4.20;3.80;;;13.70;53.20;14.70;99831.00;;;;5049985;28;20722;-42
2023/12/08 04:18:52;;;;;;;4.03;3.70;;;13.70;53.70;14.70;99827.00;;;;5049901;28;20529;-44
2023/12/08 04:21:18;;;;;;;11.77;4.27;;;13.60;53.60;14.60;99826.00;;;;5050088;28;20675;-41
2023/12/08 04:23:44;;;;;;;6.10;3.83;;;13.70;55.40;14.60;99823.00;;;;5050027;28;20189;-41
2023/12/08 04:26:09;;;;;;;4.10;3.80;;;13.70;54.10;14.70;99828.00;;;;5044587;28;20194;-41
2023/12/08 04:28:35;;;;;;;3.90;3.60;;;13.70;54.10;14.60;99829.00;;;;5043408;28;20308;-41
2023/12/08 04:31:01;;;;;;;4.13;3.83;;;13.70;53.80;14.60;99837.00;;;;5048351;28;20216;-42
2023/12/08 04:33:27;;;;;;;3.90;3.60;;;13.70;53.80;14.60;99832.00;;;;5048038;28;20162;-42
2023/12/08 04:35:52;;;;;;;4.03;3.70;;;13.60;53.90;14.60;99834.00;;;;5048470;28;20194;-42
2023/12/08 04:38:18;;;;;;;3.90;3.60;;;13.60;54.00;14.60;99841.00;;;;5049211;28;20206;-41
2023/12/08 04:40:44;;;;;;;4.37;3.97;;;13.60;54.00;14.60;99860.00;;;;5049595;28;20224;-41
2023/12/08 04:43:09;;;;;;;4.27;3.97;;;13.60;53.80;14.60;99860.00;;;;5049260;28;20223;-41
2023/12/08 04:45:36;;;;;;;3.97;3.67;;;13.50;53.50;14.50;99863.00;;;;5049152;28;20221;-41
2023/12/08 04:48:02;;;;;;;4.07;3.77;;;13.50;53.80;14.50;99860.00;;;;5047946;28;20178;-42
2023/12/08 04:50:28;;;;;;;4.37;4.00;;;13.50;53.90;14.50;99878.00;;;;5049387;28;20680;-42
2023/12/08 04:52:53;;;;;;;4.00;3.70;;;13.50;53.90;14.50;99896.00;;;;5047909;28;21065;-42
2023/12/08 04:55:19;;;;;;;4.80;4.37;;;13.50;53.90;14.50;99902.00;;;;5047895;28;20225;-42
2023/12/08 04:57:45;;;;;;;4.40;4.00;;;13.50;53.50;14.50;99903.00;;;;5048485;28;20256;-42
2023/12/08 05:00:11;;;;;;;4.33;4.00;;;13.50;53.50;14.50;99891.00;;;;5049145;28;20279;-42
2023/12/08 05:02:37;;;;;;;4.20;3.80;;;13.40;53.50;14.50;99891.00;;;;5049345;28;20547;-41
2023/12/08 05:05:03;;;;;;;4.23;3.90;;;13.40;53.70;14.40;99889.00;;;;5049278;28;20241;-41
2023/12/08 05:07:29;;;;;;;4.20;3.90;;;13.40;53.70;14.40;99883.00;;;;5049985;28;20548;-41
2023/12/08 05:09:55;;;;;;;4.57;4.20;;;13.40;53.80;14.40;99869.00;;;;5049307;28;20178;-41
2023/12/08 05:12:20;;;;;;;4.30;3.90;;;13.40;53.90;14.40;99872.00;;;;5048105;28;20220;-42
2023/12/08 05:14:46;;;;;;;4.17;3.87;;;13.40;53.90;14.40;99871.00;;;;5049025;28;20620;-42
2023/12/08 05:17:12;;;;;;;4.77;4.30;;;13.40;54.00;14.40;99863.00;;;;5048373;28;20252;-42
2023/12/08 05:19:37;;;;;;;4.20;3.80;;;13.40;54.10;14.40;99863.00;;;;5047057;28;20175;-42
2023/12/08 05:22:04;;;;;;;6.43;3.90;;;13.40;54.30;14.40;99852.00;;;;5048898;28;20167;-42
2023/12/08 05:24:30;;;;;;;6.93;3.57;;;13.40;54.50;14.40;99850.00;;;;5048661;28;20296;-42
2023/12/08 05:26:55;;;;;;;4.07;3.67;;;13.40;54.70;14.40;99852.00;;;;5047353;28;20895;-42
2023/12/08 05:29:21;;;;;;;6.30;3.43;;;13.40;54.60;14.30;99860.00;;;;5048415;28;20271;-42
2023/12/08 05:31:47;;;;;;;6.90;3.50;;;13.40;54.60;14.30;99854.00;;;;5048721;28;20178;-41
2023/12/08 05:34:13;;;;;;;4.90;3.40;;;13.40;54.70;14.30;99854.00;;;;5048620;28;20178;-42
2023/12/08 05:36:39;;;;;;;6.30;3.20;;;13.40;55.30;14.30;99861.00;;;;5048589;28;20206;-42
2023/12/08 05:39:06;;;;;;;4.20;3.40;;;13.40;54.80;14.30;99855.00;;;;5047034;28;20174;-42
2023/12/08 05:41:31;;;;;;;3.80;3.40;;;13.40;55.00;14.30;99863.00;;;;5048329;28;20671;-42
2023/12/08 05:43:57;;;;;;;3.70;3.40;;;13.40;55.00;14.30;99867.00;;;;5048321;28;20162;-42
2023/12/08 05:46:23;;;;;;;4.80;3.30;;;13.40;55.10;14.30;99850.00;;;;5047700;28;20205;-42
2023/12/08 05:48:49;;;;;;;4.57;3.30;;;13.40;55.20;14.30;99862.00;;;;5048345;28;20167;-42
2023/12/08 05:51:15;;;;;;;4.13;3.13;;;13.40;55.40;14.30;99868.00;;;;5048524;28;20182;-42
2023/12/08 05:53:41;;;;;;;6.57;3.40;;;13.40;55.30;14.30;99863.00;;;;5048207;28;20197;-42
2023/12/08 05:56:07;;;;;;;3.50;3.03;;;13.50;55.60;14.30;99870.00;;;;5048359;28;20263;-42
2023/12/08 05:58:33;;;;;;;5.00;3.07;;;13.40;55.50;14.30;99854.00;;;;5048031;28;20179;-44
2023/12/08 06:00:59;;;;;;;3.57;3.10;;;13.40;55.50;14.30;99873.00;;;;5048456;28;20178;-43
2023/12/08 06:03:24;;;;;;;3.53;2.90;;;13.40;55.60;14.30;99878.00;;;;5048149;28;20166;-43
2023/12/08 06:05:50;;;;;;;2.90;2.70;;;13.40;55.50;14.30;99859.00;;;;5048763;28;20690;-41
2023/12/08 06:08:16;;;;;;;3.63;2.93;;;13.40;55.60;14.20;99860.00;;;;5048300;28;20182;-42
2023/12/08 06:10:42;;;;;;;3.00;2.80;;;13.40;55.50;14.20;99864.00;;;;5042604;28;20171;-41
2023/12/08 06:13:08;;;;;;;3.43;3.13;;;13.40;55.60;14.20;99867.00;;;;5047305;28;20174;-42
2023/12/08 06:15:34;;;;;;;5.50;3.27;;;13.40;55.70;14.20;99873.00;;;;5048317;28;20226;-42
2023/12/08 06:17:59;;;;;;;3.37;3.07;;;13.30;55.70;14.20;99873.00;;;;5047860;28;20202;-42
2023/12/08 06:20:25;;;;;;;4.57;3.00;;;13.30;55.80;14.20;99871.00;;;;5048316;28;20197;-42
2023/12/08 06:22:51;;;;;;;3.57;2.77;;;13.30;55.80;14.20;99899.00;;;;5048889;28;20236;-42
2023/12/08 06:25:16;;;;;;;3.07;2.77;;;13.30;55.80;14.20;99799.00;;;;5043786;28;20787;-47
2023/12/08 06:27:43;;;;;;;4.67;2.90;;;13.30;55.80;14.20;99874.00;;;;5047997;28;20224;-42
2023/12/08 06:30:09;;;;;;;4.30;2.90;;;13.30;55.90;14.20;99864.00;;;;5045317;28;20665;-42
2023/12/08 06:32:35;;;;;;;2.93;2.63;;;13.30;56.00;14.20;99867.00;;;;5048059;28;20186;-41
2023/12/08 06:35:01;;;;;;;3.00;2.70;;;13.30;56.00;14.20;99859.00;;;;5048049;28;20335;-42
2023/12/08 06:37:27;;;;;;;3.33;2.80;;;13.30;56.10;14.20;99860.00;;;;5047502;28;20529;-41
2023/12/08 06:39:52;;;;;;;3.20;2.90;;;13.30;56.10;14.10;99859.00;;;;5047919;28;20170;-42
2023/12/08 06:42:18;;;;;;;3.20;2.90;;;13.20;56.10;14.10;99860.00;;;;5047903;28;20206;-42
2023/12/08 06:44:44;;;;;;;3.03;2.70;;;13.20;56.10;14.10;99855.00;;;;5048044;28;20170;-41
2023/12/08 06:47:09;;;;;;;3.00;2.80;;;13.20;56.10;14.10;99873.00;;;;5047962;28;20170;-42
2023/12/08 06:49:35;;;;;;;2.90;2.70;;;13.20;56.10;14.10;99872.00;;;;5047887;28;20202;-42
2023/12/08 06:52:01;;;;;;;3.00;2.70;;;13.20;56.10;14.10;99863.00;;;;5048036;28;20649;-42
2023/12/08 06:54:27;;;;;;;4.00;2.70;;;13.20;56.10;14.10;99867.00;;;;5047633;28;20170;-43
2023/12/08 06:56:52;;;;;;;2.90;2.70;;;13.20;56.10;14.10;99877.00;;;;5048861;28;20198;-41
2023/12/08 06:59:18;;;;;;;3.13;2.83;;;13.20;56.20;14.10;99867.00;;;;5051078;28;20175;-43
2023/12/08 07:01:44;;;;;;;2.93;2.50;;;13.20;56.10;14.10;99873.00;;;;5051421;28;20282;-42
2023/12/08 07:04:10;;;;;;;2.93;2.63;;;13.20;56.30;14.10;99873.00;;;;5051258;28;20710;-42
2023/12/08 07:06:36;;;;;;;4.43;2.80;;;13.20;56.30;14.10;99871.00;;;;5051516;28;20293;-42
2023/12/08 07:09:01;;;;;;;2.80;2.60;;;13.20;56.30;14.00;99884.00;;;;5050838;28;20548;-42
2023/12/08 07:11:27;;;;;;;3.03;2.73;;;13.10;56.30;14.00;99882.00;;;;5051520;28;20177;-42
2023/12/08 07:13:53;;;;;;;3.03;2.60;;;13.10;56.20;14.00;99882.00;;;;5051529;28;20663;-42
2023/12/08 07:16:19;;;;;;;2.90;2.70;;;13.10;56.40;14.00;99888.00;;;;5051300;28;20232;-42
2023/12/08 07:18:45;;;;;;;3.30;3.00;;;13.10;56.40;14.00;99890.00;;;;5050976;28;20194;-43
2023/12/08 07:21:11;;;;;;;2.63;2.43;;;13.10;56.40;14.00;99879.00;;;;5051034;28;20555;-42
2023/12/08 07:23:37;;;;;;;2.90;2.70;;;13.10;56.50;14.00;99891.00;;;;5050737;28;20261;-42
2023/12/08 07:26:04;;;;;;;3.13;2.83;;;13.10;56.60;14.00;99889.00;;;;5050773;28;20239;-42
2023/12/08 07:28:30;;;;;;;2.83;2.63;;;13.10;56.50;14.00;99895.00;;;;5050550;28;20182;-42
2023/12/08 07:30:56;;;;;;;2.80;2.60;;;13.10;56.50;13.90;99891.00;;;;5051195;28;20232;-42
2023/12/08 07:33:21;;;;;;;2.87;2.67;;;13.10;57.20;13.90;99896.00;;;;5050531;28;20205;-42
2023/12/08 07:35:47;;;;;;;2.70;2.50;;;13.00;56.50;13.90;99896.00;;;;5051410;28;20190;-42
2023/12/08 07:38:13;;;;;;;2.80;2.60;;;13.10;56.60;13.90;99897.00;;;;5051071;28;20206;-42
2023/12/08 07:40:39;;;;;;;2.70;2.50;;;13.00;56.50;13.90;99879.00;;;;5050666;28;20170;-42
2023/12/08 07:43:04;;;;;;;2.63;2.43;;;13.10;56.70;13.90;99894.00;;;;5050491;28;20179;-41
2023/12/08 07:45:30;;;;;;;2.70;2.50;;;13.10;56.80;13.90;99884.00;;;;5050331;28;20288;-41
2023/12/08 07:47:57;;;;;;;3.97;2.80;;;13.00;56.60;13.90;99887.00;;;;5050638;28;20923;-42
2023/12/08 07:50:22;;;;;;;2.80;2.60;;;13.00;56.70;13.90;99896.00;;;;5050479;28;20186;-41
2023/12/08 07:52:48;;;;;;;4.10;2.90;;;13.10;56.90;13.90;99903.00;;;;5049949;28;20193;-42
2023/12/08 07:55:14;;;;;;;3.57;2.90;;;13.10;57.20;13.90;99889.00;;;;5049374;28;20194;-41
2023/12/08 07:57:40;;;;;;;3.00;2.70;;;13.10;57.40;14.00;99892.00;;;;5049702;28;20198;-41
2023/12/08 08:00:06;;;;;;;4.77;2.70;;;13.20;57.50;14.00;99894.00;;;;5048817;28;20175;-41
2023/12/08 08:02:32;;;;;;;3.13;2.83;;;13.30;57.60;14.10;99899.00;;;;5040911;28;20197;-41
2023/12/08 08:04:58;;;;;;;2.93;2.73;;;13.40;57.60;14.10;99906.00;;;;5045501;28;20558;-42
2023/12/08 08:07:24;;;;;;;3.10;2.80;;;13.50;57.50;14.20;99901.00;;;;5048586;28;20201;-42
2023/12/08 08:09:50;;;;;;;3.40;2.67;;;13.60;57.30;14.30;99893.00;;;;5049640;28;20171;-41
2023/12/08 08:12:16;;;;;;;4.37;2.60;;;13.70;57.10;14.40;99905.00;;;;5048897;28;20185;-44
2023/12/08 08:14:42;;;;;;;2.93;2.60;;;13.80;56.90;14.50;99909.00;;;;5049713;28;20178;-40
2023/12/08 08:17:08;;;;;;;3.87;2.60;;;14.00;57.30;14.60;99904.00;;;;5047986;28;20190;-43
2023/12/08 08:19:33;;;;;;;3.77;2.60;;;14.10;57.20;14.70;99911.00;;;;5049849;28;20546;-41
2023/12/08 08:21:59;;;;;;;4.13;2.80;;;14.30;57.20;14.80;99912.00;;;;5050174;28;20178;-43
2023/12/08 08:24:26;;;;;;;6.67;2.50;;;14.50;57.00;14.90;99917.00;;;;5049058;28;20170;-41
2023/12/08 08:26:51;;;;;;;3.00;2.70;;;14.60;56.60;15.00;99908.00;;;;5049526;28;20205;-41
2023/12/08 08:29:17;;;;;;;2.60;2.30;;;14.80;56.60;15.10;99931.00;;;;5049686;28;20534;-42
2023/12/08 08:31:43;;;;;;;2.50;2.30;;;14.90;56.40;15.20;99920.00;;;;5044003;28;20162;-42
2023/12/08 08:34:09;;;;;;;3.00;2.60;;;15.00;56.10;15.40;99916.00;;;;5046974;28;20170;-42
2023/12/08 08:36:34;;;;;;;3.03;2.60;;;15.10;56.00;15.50;99923.00;;;;5049308;28;20213;-42
2023/12/08 08:39:00;;;;;;;3.33;2.60;;;15.30;55.90;15.60;99939.00;;;;5047387;28;20179;-42
2023/12/08 08:41:26;;;;;;;2.37;2.20;;;15.40;55.80;15.70;99923.00;;;;5045438;28;20569;-43
2023/12/08 08:43:52;;;;;;;2.50;2.30;;;15.50;55.70;15.80;99928.00;;;;5042486;28;20175;-42
2023/12/08 08:46:17;;;;;;;2.73;2.50;;;15.60;55.60;15.90;99928.00;;;;5044973;28;20198;-42
2023/12/08 08:48:43;;;;;;;2.93;2.30;;;15.70;55.30;16.00;99925.00;;;;5044589;28;20171;-42
2023/12/08 08:51:10;;;;;;;2.40;2.20;;;15.80;55.40;16.10;99929.00;;;;5049596;28;20170;-42
2023/12/08 08:53:36;;;;;;;2.47;2.27;;;15.80;55.40;16.20;99926.00;;;;5048181;28;20170;-42
2023/12/08 08:56:02;;;;;;;2.93;2.50;;;15.90;55.50;16.30;99928.00;;;;5049212;28;20672;-42
2023/12/08 08:58:28;;;;;;;2.70;2.50;;;16.00;55.40;16.40;99929.00;;;;5048212;28;20206;-44
2023/12/08 09:00:53;;;;;;;2.73;2.50;;;16.10;55.40;16.50;99939.00;;;;5050210;28;20653;-42
2023/12/08 09:03:19;;;;;;;3.80;2.70;;;16.20;55.30;16.50;99938.00;;;;5048834;28;20162;-42
2023/12/08 09:05:45;;;;;;;2.23;2.10;;;16.30;55.30;16.60;99931.00;;;;5047910;28;20807;-42
2023/12/08 09:08:11;;;;;;;3.90;2.37;;;16.40;55.30;16.70;99941.00;;;;5049277;28;20181;-41
2023/12/08 09:10:37;;;;;;;2.83;2.20;;;16.40;55.30;16.70;99933.00;;;;5047936;28;20188;-42
2023/12/08 09:13:02;;;;;;;2.43;2.23;;;16.50;55.20;16.80;99948.00;;;;5049005;28;20197;-43
2023/12/08 09:15:28;;;;;;;2.60;2.40;;;16.50;55.20;16.90;99948.00;;;;5047551;28;20667;-42
2023/12/08 09:17:55;;;;;;;2.30;2.10;;;16.60;55.90;17.00;99947.00;;;;5048661;28;20184;-42
2023/12/08 09:20:22;;;;;;;2.63;2.43;;;16.60;55.10;17.00;99950.00;;;;5048528;28;20187;-42
2023/12/08 09:22:47;;;;;;;2.87;2.60;;;16.60;55.40;17.00;99949.00;;;;5045914;28;20177;-42
2023/12/08 09:25:13;;;;;;;5.17;2.37;;;16.60;56.00;17.00;99940.00;;;;5048336;28;20200;-42
2023/12/08 09:27:39;;;;;;;4.07;2.63;;;16.60;56.30;17.10;99948.00;;;;5047800;28;20184;-42
2023/12/08 09:30:05;;;;;;;3.03;2.63;;;16.60;56.10;17.10;99954.00;;;;5048637;28;20180;-42
2023/12/08 09:32:31;;;;;;;2.80;2.60;;;16.60;56.00;17.10;99945.00;;;;5045202;28;20177;-43
2023/12/08 09:34:57;;;;;;;3.80;3.00;;;16.70;55.90;17.20;99948.00;;;;5048272;28;20198;-43
2023/12/08 09:37:22;;;;;;;3.43;2.73;;;16.70;55.90;17.20;99949.00;;;;5048385;28;20658;-41
2023/12/08 09:39:48;;;;;;;3.17;2.50;;;16.80;55.50;17.30;99945.00;;;;5047687;28;20546;-42
2023/12/08 09:42:31;;;;;;;4.00;2.57;;;16.80;55.40;17.30;99952.00;;;;5048323;28;20604;-41
2023/12/08 09:44:56;;;;;;;2.90;2.70;;;16.80;55.70;17.30;99948.00;;;;5042963;28;20683;-43
2023/12/08 09:47:23;;;;;;;3.10;2.80;;;16.80;55.90;17.30;99949.00;;;;5047650;28;20174;-42
2023/12/08 09:49:49;;;;;;;3.03;2.63;;;16.80;56.20;17.40;99950.00;;;;5047360;28;20217;-44
2023/12/08 09:52:15;;;;;;;3.97;2.73;;;16.90;56.30;17.40;99947.00;;;;5047348;28;20185;-44
2023/12/08 09:54:43;;;;;;;3.67;2.60;;;16.90;56.30;17.50;99964.00;;;;5047598;28;20180;-42
2023/12/08 09:57:11;;;;;;;3.00;2.60;;;17.00;57.40;17.50;99960.00;;;;5048025;28;20196;-42
2023/12/08 09:59:38;;;;;;;3.73;2.53;;;17.00;57.70;17.50;99965.00;;;;5029202;28;20179;-43
2023/12/08 10:02:04;;;;;;;3.23;2.50;;;17.00;58.20;17.60;99965.00;;;;5048327;28;20757;-43
2023/12/08 10:04:29;;;;;;;5.40;2.63;;;17.00;58.50;17.60;99968.00;;;;5047038;28;20185;-43
2023/12/08 10:06:58;;;;;;;4.13;2.70;;;17.10;58.60;17.60;99967.00;;;;5046868;28;20173;-43
2023/12/08 10:09:24;;;;;;;4.03;2.57;;;17.00;58.80;17.60;99959.00;;;;5048625;28;20198;-43
2023/12/08 10:11:50;;;;;;;5.27;2.60;;;17.00;58.90;17.60;99953.00;;;;5047594;28;20206;-43
2023/12/08 10:14:16;;;;;;;3.97;2.50;;;17.00;58.70;17.60;99952.00;;;;5047174;28;20700;-43
2023/12/08 10:16:46;;;;;;;4.40;2.40;;;17.10;58.50;17.70;99967.00;;;;5029865;28;20280;-43
2023/12/08 10:19:12;;;;;;;3.97;2.50;;;17.10;58.50;17.70;99964.00;;;;5048077;28;20174;-43
2023/12/08 10:21:38;;;;;;;2.73;2.47;;;17.10;58.20;17.70;99961.00;;;;5048216;28;20776;-43
2023/12/08 10:24:04;;;;;;;4.70;2.43;;;17.10;58.20;17.70;99970.00;;;;5047702;28;20239;-43
2023/12/08 10:26:31;;;;;;;4.00;2.57;;;17.10;58.10;17.70;99971.00;;;;5047683;28;20196;-43
2023/12/08 10:28:57;;;;;;;5.43;2.40;;;17.10;57.90;17.70;99972.00;;;;5047035;28;20185;-43
2023/12/08 10:31:23;;;;;;;3.83;2.50;;;17.10;57.80;17.70;99967.00;;;;5046961;28;20169;-44
2023/12/08 10:33:49;;;;;;;3.10;2.30;;;17.10;58.20;17.70;99953.00;;;;5050366;28;20174;-44
2023/12/08 10:36:16;;;;;;;3.53;2.27;;;17.10;58.50;17.70;99963.00;;;;5051524;28;20201;-45
2023/12/08 10:38:42;;;;;;;4.50;2.50;;;17.10;58.60;17.80;99965.00;;;;5052013;28;20201;-45
2023/12/08 10:41:11;;;;;;;3.63;2.50;;;17.20;58.70;17.80;99966.00;;;;5051900;28;20260;-44
2023/12/08 10:43:37;;;;;;;2.73;2.50;;;17.20;58.70;17.80;99968.00;;;;5050491;28;20232;-44
2023/12/08 10:46:03;;;;;;;3.23;2.50;;;17.20;58.70;17.80;99970.00;;;;5050364;28;20197;-44
2023/12/08 10:48:29;;;;;;;3.50;2.70;;;17.10;58.90;17.80;99967.00;;;;5051848;28;20231;-44